ADDS METAR Data INFO
IDs: Format: Raw Decoded Include TAF

Data at: 0154 UTC 25 Feb 2018

KGGG 250112Z 29005KT 8SM R13/6000VP6000FT +RA OVC030 14/14 A2993 RMK AO2 P0010 T01390139
KGGG 250034Z 31005KT 10SM -TSRA BKN021 OVC027 14/14 A2990 RMK AO2 LTG DSNT SW TSB28 P0007 T01390139
KGGG 242353Z 32006KT 8SM RA BKN021 OVC027 14/14 A2988 RMK AO2 RAE2255B11 SLP117 P0018 60115 T01440144 10233 20144 53034

KGGG 242340Z 2500/2524 26013G22KT P6SM VCTS OVC020CB
  TEMPO 2500/2501 VRB06G15KT 3SM -TSRA BR SCT015 BKN025 OVC050CB
  FM250100 30008KT P6SM VCTS OVC020CB
  FM250200 32006KT P6SM BKN050 BKN200
  FM250800 01005KT P6SM BKN200
  FM251500 10008KT P6SM BKN120
  FM252100 13006KT P6SM OVC100


KTYR 250053Z 33004KT 10SM OVC038 13/12 A2992 RMK AO2 SLP128 T01330117
KTYR 242353Z 33010KT 10SM OVC031 13/12 A2990 RMK AO2 SLP119 60022 T01330117 10233 20133 51030

KTYR 242340Z 2500/2524 32007KT P6SM SCT008 OVC024
  FM250200 32006KT P6SM BKN050 BKN200
  FM250600 01005KT P6SM BKN200
  FM250900 03005KT 4SM BR SCT250
  FM251500 10008KT P6SM BKN120